Time;durP1;ratioP1;P1;durP2;ratioP2;P2;SDS_P1;SDS_P2;PMS_P1;PMS_P2;Temp;Humidity;BMP_temperature;BMP_pressure;BME280_temperature;BME280_humidity;BME280_pressure;Samples;Min_cycle;Max_cycle;Signal;HPM_P1;HPM_P2
2023/02/02 00:01:32;;;;;;;28.50;6.05;;;;;;;;;;4973089;28;20527;-68
2023/02/02 00:03:57;;;;;;;30.63;6.22;;;;;;;;;;4970559;28;20050;-66
2023/02/02 00:06:24;;;;;;;31.25;5.38;;;;;;;;;;4971599;28;20089;-68
2023/02/02 00:08:49;;;;;;;27.95;6.10;;;;;;;;;;4976305;28;20045;-67
2023/02/02 00:11:15;;;;;;;36.20;8.35;;;;;;;;;;4972050;28;20039;-67
2023/02/02 00:13:40;;;;;;;25.00;5.18;;;;;;;;;;4973552;28;20150;-67
2023/02/02 00:16:21;;;;;;;33.15;6.07;;;;;;;;;;4976150;28;20026;-68
2023/02/02 00:18:46;;;;;;;;;;;;;;;;;;4973048;28;20511;-67
2023/02/02 00:21:11;;;;;;;37.47;6.97;;;;;;;;;;4970224;28;19961;-68
2023/02/02 00:23:36;;;;;;;30.73;6.97;;;;;;;;;;4972697;28;20035;-67
2023/02/02 00:26:01;;;;;;;25.60;5.47;;;;;;;;;;4970745;28;20313;-68
2023/02/02 00:28:26;;;;;;;45.58;8.75;;;;;;;;;;4972855;28;20294;-67
2023/02/02 00:30:51;;;;;;;26.77;7.33;;;;;;;;;;4969618;28;20027;-68
2023/02/02 00:33:17;;;;;;;28.27;6.37;;;;;;;;;;4967989;28;20655;-67
2023/02/02 00:35:42;;;;;;;32.00;6.27;;;;;;;;;;4968576;28;20364;-68
2023/02/02 00:38:07;;;;;;;31.60;6.18;;;;;;;;;;4969949;28;20269;-66
2023/02/02 00:40:32;;;;;;;35.80;5.80;;;;;;;;;;4970861;28;20056;-68
2023/02/02 00:42:58;;;;;;;34.27;6.73;;;;;;;;;;4970664;28;20843;-67
2023/02/02 00:45:24;;;;;;;33.13;5.28;;;;;;;;;;4969692;28;20361;-68
2023/02/02 00:47:49;;;;;;;27.42;6.32;;;;;;;;;;4971657;28;20705;-67
2023/02/02 00:50:18;;;;;;;34.95;5.70;;;;;;;;;;4966712;28;20054;-68
2023/02/02 00:52:44;;;;;;;38.30;7.07;;;;;;;;;;4978560;28;20026;-67
2023/02/02 00:55:10;;;;;;;32.33;6.57;;;;;;;;;;4971781;28;20026;-68
2023/02/02 00:57:35;;;;;;;33.40;6.47;;;;;;;;;;4969451;28;20026;-68
2023/02/02 01:00:01;;;;;;;29.05;5.72;;;;;;;;;;4968709;28;20163;-67
2023/02/02 01:02:26;;;;;;;27.73;6.47;;;;;;;;;;4968735;28;20035;-67
2023/02/02 01:04:52;;;;;;;40.60;6.63;;;;;;;;;;4970279;28;20031;-68
2023/02/02 01:07:17;;;;;;;38.58;8.38;;;;;;;;;;4971494;28;20070;-68
2023/02/02 01:09:42;;;;;;;29.75;7.80;;;;;;;;;;4969298;28;20682;-68
2023/02/02 01:12:07;;;;;;;23.73;5.70;;;;;;;;;;4972199;28;20031;-68
2023/02/02 01:14:32;;;;;;;37.65;7.93;;;;;;;;;;4974868;28;20027;-67
2023/02/02 01:16:57;;;;;;;24.70;5.13;;;;;;;;;;4970929;28;20030;-67
2023/02/02 01:19:23;;;;;;;38.40;8.02;;;;;;;;;;4973134;28;20306;-67
2023/02/02 01:21:48;;;;;;;23.33;4.70;;;;;;;;;;4964818;28;20074;-67
2023/02/02 01:24:13;;;;;;;30.92;6.72;;;;;;;;;;4972507;28;20058;-68
2023/02/02 01:26:38;;;;;;;38.53;6.20;;;;;;;;;;4975971;28;20022;-66
2023/02/02 01:29:03;;;;;;;41.67;6.53;;;;;;;;;;4976826;28;20305;-68
2023/02/02 01:31:29;;;;;;;32.03;7.87;;;;;;;;;;4976877;28;20131;-67
2023/02/02 01:33:54;;;;;;;29.30;5.33;;;;;;;;;;4966594;28;20786;-68
2023/02/02 01:36:20;;;;;;;35.92;5.70;;;;;;;;;;4971842;28;20254;-66
2023/02/02 01:38:46;;;;;;;34.33;6.75;;;;;;;;;;4972147;28;20426;-68
2023/02/02 01:41:13;;;;;;;30.25;7.20;;;;;;;;;;4971144;28;20145;-67
2023/02/02 01:43:44;;;;;;;22.27;6.25;;;;;;;;;;4974260;28;20023;-67
2023/02/02 01:46:19;;;;;;;26.50;5.30;;;;;;;;;;4973080;28;20666;-68
2023/02/02 01:48:56;;;;;;;29.40;6.22;;;;;;;;;;4969288;28;20022;-68
2023/02/02 01:51:24;;;;;;;27.30;8.20;;;;;;;;;;4972067;28;20085;-66
2023/02/02 01:53:50;;;;;;;35.30;7.80;;;;;;;;;;4970784;28;20014;-67
2023/02/02 01:56:23;;;;;;;34.97;7.85;;;;;;;;;;4973912;28;20491;-67
2023/02/02 01:58:48;;;;;;;43.40;9.68;;;;;;;;;;4967123;28;20022;-66
2023/02/02 02:01:13;;;;;;;32.63;6.68;;;;;;;;;;4975366;28;20027;-67
2023/02/02 02:03:38;;;;;;;35.05;6.57;;;;;;;;;;4967127;28;20483;-65
2023/02/02 02:06:08;;;;;;;40.83;8.53;;;;;;;;;;4972145;28;20026;-67
2023/02/02 02:08:36;;;;;;;46.40;8.60;;;;;;;;;;4971069;28;20372;-66
2023/02/02 02:11:02;;;;;;;26.42;7.10;;;;;;;;;;4970460;28;20026;-67
2023/02/02 02:16:32;;;;;;;39.08;7.32;;;;;;;;;;4967503;28;20030;-67
2023/02/02 02:19:17;;;;;;;42.72;6.15;;;;;;;;;;4953756;28;20086;-68
2023/02/02 02:27:22;;;;;;;34.75;7.97;;;;;;;;;;4953226;28;20035;-66
2023/02/02 02:30:04;;;;;;;31.33;6.07;;;;;;;;;;4970774;28;20430;-68
2023/02/02 02:32:33;;;;;;;25.40;6.03;;;;;;;;;;4966095;28;20289;-67
2023/02/02 02:35:06;;;;;;;27.40;4.97;;;;;;;;;;4974285;28;20055;-67
2023/02/02 02:38:06;;;;;;;34.78;6.80;;;;;;;;;;4969586;28;20025;-67
2023/02/02 02:40:52;;;;;;;34.38;6.72;;;;;;;;;;4897254;29;20497;-67
2023/02/02 02:43:20;;;;;;;45.13;7.00;;;;;;;;;;4964175;28;20043;-67
2023/02/02 02:45:45;;;;;;;33.33;7.22;;;;;;;;;;4966819;28;20019;-67
2023/02/02 02:48:10;;;;;;;40.35;5.72;;;;;;;;;;4966026;28;20023;-67
2023/02/02 02:50:36;;;;;;;27.92;5.78;;;;;;;;;;4970344;28;20027;-66
2023/02/02 02:53:04;;;;;;;36.33;7.07;;;;;;;;;;4969494;28;20026;-67
2023/02/02 02:55:45;;;;;;;39.30;5.53;;;;;;;;;;4970671;28;20038;-67
2023/02/02 02:58:16;;;;;;;36.95;6.68;;;;;;;;;;4972947;28;20072;-66
2023/02/02 03:00:47;;;;;;;33.58;6.05;;;;;;;;;;4972866;28;20482;-67
2023/02/02 03:03:30;;;;;;;27.20;5.68;;;;;;;;;;4972859;28;20065;-67
2023/02/02 03:05:58;;;;;;;29.58;8.75;;;;;;;;;;4973552;28;20027;-67
2023/02/02 03:08:23;;;;;;;45.70;9.38;;;;;;;;;;4971897;28;20044;-67
2023/02/02 03:10:50;;;;;;;37.13;8.77;;;;;;;;;;4975313;28;20022;-67
2023/02/02 03:13:15;;;;;;;38.13;7.35;;;;;;;;;;4968332;28;20897;-66
2023/02/02 03:15:41;;;;;;;37.60;7.45;;;;;;;;;;4973945;28;20019;-67
2023/02/02 03:18:07;;;;;;;32.78;8.88;;;;;;;;;;4976323;28;20015;-67
2023/02/02 03:20:32;;;;;;;28.15;7.60;;;;;;;;;;4970269;28;20021;-67
2023/02/02 03:22:58;;;;;;;37.25;9.05;;;;;;;;;;4970713;28;21475;-66
2023/02/02 03:25:23;;;;;;;41.53;9.77;;;;;;;;;;4955359;28;20038;-67
2023/02/02 03:27:48;;;;;;;33.30;6.93;;;;;;;;;;4975786;28;20017;-67
2023/02/02 03:30:14;;;;;;;45.03;7.47;;;;;;;;;;4975853;28;20038;-67
2023/02/02 03:32:39;;;;;;;29.50;6.00;;;;;;;;;;4968236;28;20494;-67
2023/02/02 03:35:05;;;;;;;39.60;7.15;;;;;;;;;;4973578;28;20019;-66
2023/02/02 03:37:30;;;;;;;39.97;7.95;;;;;;;;;;4972965;28;20023;-67
2023/02/02 03:39:55;;;;;;;62.87;9.93;;;;;;;;;;4972084;28;20023;-66
2023/02/02 03:42:20;;;;;;;37.53;8.10;;;;;;;;;;4975603;28;20282;-67
2023/02/02 03:44:45;;;;;;;34.45;7.22;;;;;;;;;;4973694;28;20282;-66
2023/02/02 03:47:11;;;;;;;33.88;6.85;;;;;;;;;;4967543;28;20114;-67
2023/02/02 03:49:36;;;;;;;41.28;9.57;;;;;;;;;;4972833;28;20021;-66
2023/02/02 03:52:03;;;;;;;38.00;9.20;;;;;;;;;;4972856;28;20038;-67
2023/02/02 03:54:28;;;;;;;41.85;10.65;;;;;;;;;;4976740;28;20278;-67
2023/02/02 03:56:54;;;;;;;32.17;8.40;;;;;;;;;;4975267;28;20094;-67
2023/02/02 03:59:19;;;;;;;49.97;8.03;;;;;;;;;;4970483;28;20701;-67
2023/02/02 04:01:44;;;;;;;29.90;7.57;;;;;;;;;;4972142;28;20263;-67
2023/02/02 04:04:09;;;;;;;44.00;9.13;;;;;;;;;;4974763;28;20340;-67
2023/02/02 04:06:34;;;;;;;38.58;7.40;;;;;;;;;;4975911;28;20289;-67
2023/02/02 04:08:59;;;;;;;36.22;8.55;;;;;;;;;;4970698;28;20023;-66
2023/02/02 04:11:25;;;;;;;34.20;8.27;;;;;;;;;;4969726;28;20022;-67
2023/02/02 04:13:50;;;;;;;26.60;8.33;;;;;;;;;;4973270;28;20907;-68
2023/02/02 04:16:15;;;;;;;37.83;8.00;;;;;;;;;;4974586;28;20293;-66
2023/02/02 04:18:40;;;;;;;60.38;8.18;;;;;;;;;;4973308;28;20265;-67
2023/02/02 04:21:06;;;;;;;39.97;6.43;;;;;;;;;;4974483;28;20026;-66
2023/02/02 04:23:32;;;;;;;47.63;11.15;;;;;;;;;;4971028;28;20050;-67
2023/02/02 04:25:57;;;;;;;52.00;10.00;;;;;;;;;;4970045;28;20070;-67
2023/02/02 04:28:24;;;;;;;40.65;8.63;;;;;;;;;;4971144;28;20376;-67
2023/02/02 04:30:50;;;;;;;37.58;8.70;;;;;;;;;;4973375;28;20018;-67
2023/02/02 04:33:15;;;;;;;45.17;8.85;;;;;;;;;;4972340;28;20030;-67
2023/02/02 04:35:44;;;;;;;42.40;10.55;;;;;;;;;;4972474;28;20030;-68
2023/02/02 04:38:09;;;;;;;36.00;8.63;;;;;;;;;;4972918;28;20042;-68
2023/02/02 04:40:38;;;;;;;31.90;6.78;;;;;;;;;;4973879;28;20031;-68
2023/02/02 04:43:03;;;;;;;57.65;8.60;;;;;;;;;;4972265;28;20038;-68
2023/02/02 04:45:29;;;;;;;40.55;9.40;;;;;;;;;;4973942;28;20034;-68
2023/02/02 04:47:54;;;;;;;39.57;8.43;;;;;;;;;;4977588;23;20042;-69
2023/02/02 04:50:19;;;;;;;48.57;10.57;;;;;;;;;;4962076;28;20770;-69
2023/02/02 04:52:44;;;;;;;41.53;7.30;;;;;;;;;;4967873;28;20282;-69
2023/02/02 04:55:09;;;;;;;45.00;8.35;;;;;;;;;;4967612;28;20038;-69
2023/02/02 04:57:34;;;;;;;50.23;9.07;;;;;;;;;;4957633;28;20042;-69
2023/02/02 05:00:00;;;;;;;46.13;10.47;;;;;;;;;;4951371;28;20306;-69
2023/02/02 05:02:25;;;;;;;44.53;8.55;;;;;;;;;;4951478;28;20282;-69
2023/02/02 05:04:50;;;;;;;51.50;9.27;;;;;;;;;;4951733;28;20368;-69
2023/02/02 05:07:15;;;;;;;49.45;9.98;;;;;;;;;;4950250;28;20302;-69
2023/02/02 05:09:40;;;;;;;56.17;9.43;;;;;;;;;;4950856;28;20062;-69
2023/02/02 05:12:05;;;;;;;33.53;7.53;;;;;;;;;;4951459;28;20266;-69
2023/02/02 05:14:31;;;;;;;55.25;9.68;;;;;;;;;;4950801;28;20394;-69
2023/02/02 05:16:56;;;;;;;40.08;8.55;;;;;;;;;;4951348;28;20264;-69
2023/02/02 05:19:21;;;;;;;40.47;8.77;;;;;;;;;;4950702;28;20049;-69
2023/02/02 05:21:48;;;;;;;45.67;13.18;;;;;;;;;;4950011;28;20391;-69
2023/02/02 05:24:13;;;;;;;44.90;10.10;;;;;;;;;;4951119;28;20383;-69
2023/02/02 05:26:39;;;;;;;47.37;8.90;;;;;;;;;;4949722;28;20034;-68
2023/02/02 05:29:05;;;;;;;28.38;8.10;;;;;;;;;;4950752;28;20350;-69
2023/02/02 05:31:30;;;;;;;38.55;7.90;;;;;;;;;;4947344;28;20110;-68
2023/02/02 05:33:56;;;;;;;59.50;9.93;;;;;;;;;;4950902;28;20412;-68
2023/02/02 05:36:21;;;;;;;39.83;9.03;;;;;;;;;;4946998;28;20759;-68
2023/02/02 05:38:46;;;;;;;55.47;8.57;;;;;;;;;;4948384;28;20275;-69
2023/02/02 05:41:11;;;;;;;41.05;9.65;;;;;;;;;;4951753;28;20023;-69
2023/02/02 05:43:36;;;;;;;37.83;9.65;;;;;;;;;;4950852;28;20030;-69
2023/02/02 05:46:02;;;;;;;41.83;9.50;;;;;;;;;;4949176;28;20027;-69
2023/02/02 05:48:27;;;;;;;35.80;8.93;;;;;;;;;;4950750;28;20318;-68
2023/02/02 05:51:11;;;;;;;21.73;5.10;;;;;;;;;;4949667;28;20107;-69
2023/02/02 05:53:36;;;;;;;42.70;7.90;;;;;;;;;;4947579;28;20023;-69
2023/02/02 05:56:01;;;;;;;37.42;8.52;;;;;;;;;;4946705;28;20446;-68
2023/02/02 05:58:27;;;;;;;53.75;9.05;;;;;;;;;;4953158;28;20105;-68
2023/02/02 06:00:52;;;;;;;48.47;10.75;;;;;;;;;;4950195;28;20033;-68
2023/02/02 06:03:17;;;;;;;59.05;12.13;;;;;;;;;;4946219;28;20034;-68
2023/02/02 06:05:43;;;;;;;43.57;8.97;;;;;;;;;;4952227;28;20023;-69
2023/02/02 06:08:08;;;;;;;66.82;12.13;;;;;;;;;;4947208;28;20302;-68
2023/02/02 06:10:33;;;;;;;51.50;13.23;;;;;;;;;;4950312;28;20740;-69
2023/02/02 06:12:58;;;;;;;39.97;9.73;;;;;;;;;;4948214;28;20491;-68
2023/02/02 06:15:23;;;;;;;34.75;9.00;;;;;;;;;;4948879;28;20262;-68
2023/02/02 06:17:49;;;;;;;40.83;10.73;;;;;;;;;;4946094;28;20030;-68
2023/02/02 06:20:14;;;;;;;55.50;12.37;;;;;;;;;;4946823;28;20042;-68
2023/02/02 06:22:39;;;;;;;46.85;13.82;;;;;;;;;;4948167;28;20635;-68
2023/02/02 06:25:06;;;;;;;37.30;10.15;;;;;;;;;;4947252;28;20031;-68
2023/02/02 06:27:32;;;;;;;32.60;7.90;;;;;;;;;;4947102;28;20028;-68
2023/02/02 06:29:57;;;;;;;39.88;9.80;;;;;;;;;;4948174;28;20033;-68
2023/02/02 06:32:22;;;;;;;35.45;10.32;;;;;;;;;;4946347;28;20616;-68
2023/02/02 06:34:47;;;;;;;41.65;10.40;;;;;;;;;;4946502;28;20344;-69
2023/02/02 06:37:12;;;;;;;40.27;9.17;;;;;;;;;;4950476;28;20455;-68
2023/02/02 06:39:38;;;;;;;44.73;10.27;;;;;;;;;;4950726;28;20278;-68
2023/02/02 06:42:03;;;;;;;53.13;10.00;;;;;;;;;;4951377;28;20274;-68
2023/02/02 06:44:28;;;;;;;47.67;10.18;;;;;;;;;;4949477;28;20290;-68
2023/02/02 06:46:53;;;;;;;36.30;13.68;;;;;;;;;;4948927;28;20089;-69
2023/02/02 06:49:19;;;;;;;32.45;10.18;;;;;;;;;;4948769;28;20030;-69
2023/02/02 06:51:45;;;;;;;47.35;9.98;;;;;;;;;;4947549;28;20387;-69
2023/02/02 06:54:10;;;;;;;34.30;11.32;;;;;;;;;;4950691;28;20142;-69
2023/02/02 06:56:36;;;;;;;39.22;10.73;;;;;;;;;;4949253;28;20067;-69
2023/02/02 06:59:01;;;;;;;57.58;10.88;;;;;;;;;;4950120;28;20382;-69
2023/02/02 07:01:26;;;;;;;45.40;10.70;;;;;;;;;;4949538;28;20039;-69
2023/02/02 07:03:52;;;;;;;49.30;12.88;;;;;;;;;;4949904;28;20031;-69
2023/02/02 07:06:18;;;;;;;43.53;10.13;;;;;;;;;;4951526;28;20020;-69
2023/02/02 07:08:44;;;;;;;44.88;10.35;;;;;;;;;;4950921;28;20016;-69
2023/02/02 07:11:09;;;;;;;41.40;10.60;;;;;;;;;;4951910;28;20015;-69
2023/02/02 07:13:34;;;;;;;36.63;10.32;;;;;;;;;;4952995;28;20111;-69
2023/02/02 07:16:01;;;;;;;36.53;9.93;;;;;;;;;;4948968;28;20034;-69
2023/02/02 07:18:26;;;;;;;45.45;10.55;;;;;;;;;;4948376;28;20034;-69
2023/02/02 07:20:51;;;;;;;41.08;10.15;;;;;;;;;;4954788;28;20027;-69
2023/02/02 07:23:16;;;;;;;43.63;10.30;;;;;;;;;;4949695;28;20039;-69
2023/02/02 07:25:42;;;;;;;40.70;9.73;;;;;;;;;;4950879;28;20417;-69
2023/02/02 07:28:07;;;;;;;36.00;9.40;;;;;;;;;;4951839;28;20298;-69
2023/02/02 07:30:33;;;;;;;40.00;10.83;;;;;;;;;;4950365;28;20015;-69
2023/02/02 07:32:58;;;;;;;42.90;9.30;;;;;;;;;;4950970;28;20271;-69
2023/02/02 07:35:23;;;;;;;42.17;10.68;;;;;;;;;;4952334;28;20487;-69
2023/02/02 07:37:52;;;;;;;40.17;10.63;;;;;;;;;;4948622;28;20039;-69
2023/02/02 07:40:17;;;;;;;47.33;10.98;;;;;;;;;;4952413;28;20034;-69
2023/02/02 07:42:44;;;;;;;37.30;9.57;;;;;;;;;;4948991;28;20015;-69
2023/02/02 07:45:09;;;;;;;60.13;12.05;;;;;;;;;;4949700;28;20113;-69
2023/02/02 07:47:35;;;;;;;31.73;10.07;;;;;;;;;;4915836;28;1045436;-69
2023/02/02 07:50:00;;;;;;;40.87;10.53;;;;;;;;;;4953795;28;20023;-70
2023/02/02 07:52:27;;;;;;;35.30;12.17;;;;;;;;;;4951082;28;20287;-70
2023/02/02 07:54:52;;;;;;;31.73;10.95;;;;;;;;;;4953366;28;20255;-69
2023/02/02 07:57:17;;;;;;;46.83;12.27;;;;;;;;;;4952001;28;20026;-69
2023/02/02 07:59:43;;;;;;;45.08;10.65;;;;;;;;;;4952094;28;20691;-69
2023/02/02 08:02:08;;;;;;;44.17;11.77;;;;;;;;;;4953990;28;20038;-69
2023/02/02 08:04:34;;;;;;;43.35;12.52;;;;;;;;;;4953018;28;20795;-70
2023/02/02 08:06:59;;;;;;;47.33;13.57;;;;;;;;;;4951298;28;20391;-70
2023/02/02 08:09:24;;;;;;;46.17;12.02;;;;;;;;;;4948934;28;20053;-69
2023/02/02 08:11:49;;;;;;;34.55;9.80;;;;;;;;;;4951478;28;20016;-69
2023/02/02 08:14:14;;;;;;;42.60;11.67;;;;;;;;;;4948765;28;20050;-70
2023/02/02 08:16:40;;;;;;;30.77;11.17;;;;;;;;;;4948982;28;20270;-70
2023/02/02 08:19:05;;;;;;;28.48;8.60;;;;;;;;;;4951561;28;20282;-69
2023/02/02 08:21:33;;;;;;;42.60;10.23;;;;;;;;;;4951898;28;20114;-69
2023/02/02 08:23:58;;;;;;;35.20;11.93;;;;;;;;;;4946534;28;20042;-69
2023/02/02 08:26:24;;;;;;;33.13;7.88;;;;;;;;;;4948302;28;20027;-69
2023/02/02 08:28:54;;;;;;;46.70;11.02;;;;;;;;;;4952404;28;20035;-70
2023/02/02 08:31:21;;;;;;;41.67;12.38;;;;;;;;;;4951991;28;20023;-70
2023/02/02 08:33:47;;;;;;;49.45;13.60;;;;;;;;;;4950551;28;20024;-70
2023/02/02 08:36:13;;;;;;;37.20;10.90;;;;;;;;;;4951721;28;20031;-70
2023/02/02 08:38:38;;;;;;;26.13;9.45;;;;;;;;;;4964776;28;20026;-69
2023/02/02 08:41:04;;;;;;;43.70;12.65;;;;;;;;;;4953336;28;20023;-69
2023/02/02 08:43:29;;;;;;;37.47;10.35;;;;;;;;;;4950036;28;20142;-70
2023/02/02 08:45:55;;;;;;;42.07;10.03;;;;;;;;;;4949553;28;20566;-70
2023/02/02 08:48:20;;;;;;;37.53;11.90;;;;;;;;;;4952160;28;20286;-69
2023/02/02 08:50:50;;;;;;;46.15;11.40;;;;;;;;;;4960182;28;20803;-69
2023/02/02 08:53:15;;;;;;;50.72;10.00;;;;;;;;;;4949797;28;20023;-70
2023/02/02 08:55:40;;;;;;;36.30;10.32;;;;;;;;;;4952715;28;20027;-70
2023/02/02 08:58:06;;;;;;;29.63;10.47;;;;;;;;;;4947905;28;20392;-70
2023/02/02 09:00:31;;;;;;;43.80;11.70;;;;;;;;;;4949343;28;20274;-70
2023/02/02 09:02:56;;;;;;;49.97;11.18;;;;;;;;;;4952255;28;20029;-70
2023/02/02 09:05:21;;;;;;;33.60;12.30;;;;;;;;;;4949550;28;20118;-70
2023/02/02 09:07:48;;;;;;;39.07;11.27;;;;;;;;;;4950834;28;20767;-70
2023/02/02 09:10:13;;;;;;;38.95;10.88;;;;;;;;;;4951217;28;20274;-70
2023/02/02 09:12:38;;;;;;;36.72;12.10;;;;;;;;;;4948946;28;20031;-69
2023/02/02 09:15:03;;;;;;;34.97;10.20;;;;;;;;;;4944684;28;20069;-70
2023/02/02 09:17:29;;;;;;;46.47;10.35;;;;;;;;;;4950678;28;20286;-69
2023/02/02 09:19:54;;;;;;;29.83;9.95;;;;;;;;;;4950380;28;20066;-70
2023/02/02 09:22:20;;;;;;;33.43;10.50;;;;;;;;;;4950881;28;20102;-70
2023/02/02 09:24:45;;;;;;;37.78;10.18;;;;;;;;;;4950067;28;20310;-70
2023/02/02 09:27:10;;;;;;;41.05;13.55;;;;;;;;;;4950965;28;20015;-69
2023/02/02 09:29:35;;;;;;;32.43;10.67;;;;;;;;;;4949789;28;20070;-70
2023/02/02 09:32:01;;;;;;;38.28;13.40;;;;;;;;;;4953041;28;20369;-70
2023/02/02 09:34:26;;;;;;;49.08;16.17;;;;;;;;;;4951275;28;20445;-69
2023/02/02 09:36:53;;;;;;;37.45;12.75;;;;;;;;;;4950027;28;20059;-70
2023/02/02 09:39:19;;;;;;;46.15;11.70;;;;;;;;;;4950937;28;20022;-70
2023/02/02 09:41:58;;;;;;;43.13;12.40;;;;;;;;;;4947318;28;20149;-70
2023/02/02 09:44:44;;;;;;;42.90;12.73;;;;;;;;;;4950742;28;20023;-70
2023/02/02 09:47:09;;;;;;;34.60;11.70;;;;;;;;;;4946223;28;20058;-69
2023/02/02 09:49:38;;;;;;;46.10;15.27;;;;;;;;;;4951622;28;20058;-70
2023/02/02 09:52:11;;;;;;;28.88;11.15;;;;;;;;;;4951973;28;20290;-70
2023/02/02 09:54:41;;;;;;;32.72;12.25;;;;;;;;;;4949732;28;20039;-70
2023/02/02 09:57:06;;;;;;;;;;;;;;;;;;4946450;28;20070;-69
2023/02/02 09:59:35;;;;;;;43.00;13.77;;;;;;;;;;4950139;28;19950;-70
2023/02/02 10:02:12;;;;;;;50.17;17.43;;;;;;;;;;4948291;28;20384;-69
2023/02/02 10:04:43;;;;;;;40.42;13.25;;;;;;;;;;4948079;28;20281;-70
2023/02/02 10:07:12;;;;;;;35.80;13.88;;;;;;;;;;4948375;28;20016;-70
2023/02/02 10:09:40;;;;;;;37.03;13.77;;;;;;;;;;4950700;28;20027;-70
2023/02/02 10:12:06;;;;;;;36.78;13.52;;;;;;;;;;4949135;28;20027;-70
2023/02/02 10:14:38;;;;;;;37.72;15.05;;;;;;;;;;4955277;28;20013;-70
2023/02/02 10:17:32;;;;;;;46.35;15.00;;;;;;;;;;4948789;28;20480;-70
2023/02/02 10:20:01;;;;;;;48.90;16.65;;;;;;;;;;4946998;28;20063;-70
2023/02/02 10:22:26;;;;;;;35.63;13.95;;;;;;;;;;4957018;28;20032;-70
2023/02/02 10:24:52;;;;;;;43.63;14.10;;;;;;;;;;4952021;28;20336;-70
2023/02/02 10:27:23;;;;;;;28.95;12.40;;;;;;;;;;4955435;28;20464;-70
2023/02/02 10:29:48;;;;;;;42.10;15.98;;;;;;;;;;4951953;28;20365;-70
2023/02/02 10:32:21;;;;;;;44.53;15.60;;;;;;;;;;4951983;28;20023;-70
2023/02/02 10:34:52;;;;;;;42.67;14.63;;;;;;;;;;4955541;28;20014;-70
2023/02/02 10:37:18;;;;;;;25.20;8.98;;;;;;;;;;4950302;28;20034;-70
2023/02/02 10:39:48;;;;;;;42.95;15.60;;;;;;;;;;4953080;28;20023;-70
2023/02/02 10:42:13;;;;;;;;;;;;;;;;;;4954617;28;20306;-70
2023/02/02 10:44:43;;;;;;;30.17;15.68;;;;;;;;;;4953076;28;19914;-69
2023/02/02 10:47:11;;;;;;;32.80;12.82;;;;;;;;;;4955273;28;20351;-70
2023/02/02 10:49:37;;;;;;;47.13;12.40;;;;;;;;;;4955520;28;20022;-70
2023/02/02 10:52:20;;;;;;;35.33;15.40;;;;;;;;;;4959548;28;20363;-70
2023/02/02 10:55:06;;;;;;;32.42;13.00;;;;;;;;;;4954217;28;20054;-71
2023/02/02 10:57:34;;;;;;;38.00;14.52;;;;;;;;;;4953289;28;20028;-69
2023/02/02 11:00:05;;;;;;;40.97;11.82;;;;;;;;;;4953560;28;20038;-70
2023/02/02 11:02:30;;;;;;;38.58;11.65;;;;;;;;;;4952331;28;20023;-69
2023/02/02 11:07:39;;;;;;;42.92;13.00;;;;;;;;;;4950886;28;20085;-69
2023/02/02 11:10:05;;;;;;;30.67;11.37;;;;;;;;;;4953800;28;20031;-70
2023/02/02 11:12:32;;;;;;;30.67;12.77;;;;;;;;;;4954506;28;20459;-69
2023/02/02 11:15:06;;;;;;;35.13;11.32;;;;;;;;;;4953935;28;20031;-69
2023/02/02 11:17:32;;;;;;;35.80;11.70;;;;;;;;;;4954138;28;20105;-69
2023/02/02 11:19:58;;;;;;;35.50;13.02;;;;;;;;;;4953469;28;20019;-69
2023/02/02 11:22:33;;;;;;;34.28;11.27;;;;;;;;;;4951592;28;20113;-69
2023/02/02 11:25:00;;;;;;;36.78;10.77;;;;;;;;;;4953286;28;20031;-69
2023/02/02 11:27:31;;;;;;;39.40;12.98;;;;;;;;;;4953998;28;20023;-69
2023/02/02 11:29:58;;;;;;;30.38;13.30;;;;;;;;;;4957480;28;20083;-69
2023/02/02 11:32:31;;;;;;;26.80;11.88;;;;;;;;;;4950487;28;20043;-70
2023/02/02 11:35:03;;;;;;;20.25;10.20;;;;;;;;;;4953082;28;20024;-69
2023/02/02 11:37:29;;;;;;;37.38;9.73;;;;;;;;;;4953154;28;20102;-69
2023/02/02 11:40:14;;;;;;;31.08;10.95;;;;;;;;;;4951328;28;20031;-70
2023/02/02 11:42:43;;;;;;;32.33;11.80;;;;;;;;;;4952452;28;20279;-69
2023/02/02 11:45:14;;;;;;;34.87;10.50;;;;;;;;;;4959508;28;20132;-69
2023/02/02 11:47:40;;;;;;;28.40;9.45;;;;;;;;;;4953507;28;20422;-69
2023/02/02 11:50:05;;;;;;;35.67;10.88;;;;;;;;;;4961093;28;20093;-69
2023/02/02 11:52:31;;;;;;;35.70;11.13;;;;;;;;;;4954159;28;20024;-69
2023/02/02 11:54:58;;;;;;;21.10;8.50;;;;;;;;;;4955654;28;20050;-69
2023/02/02 11:57:24;;;;;;;25.45;10.38;;;;;;;;;;4952969;28;20507;-69
2023/02/02 12:00:04;;;;;;;33.55;10.55;;;;;;;;;;4953079;28;20030;-69
2023/02/02 12:02:30;;;;;;;27.88;10.90;;;;;;;;;;4952068;28;20035;-69
2023/02/02 12:05:10;;;;;;;33.88;9.65;;;;;;;;;;4955985;28;20034;-68
2023/02/02 12:07:36;;;;;;;30.55;9.88;;;;;;;;;;4952767;28;20030;-69
2023/02/02 12:10:19;;;;;;;23.92;8.95;;;;;;;;;;4951809;28;20411;-69
2023/02/02 12:13:13;;;;;;;28.58;9.50;;;;;;;;;;4952130;28;20023;-68
2023/02/02 12:15:57;;;;;;;36.45;11.98;;;;;;;;;;4948581;28;20043;-69
2023/02/02 12:18:26;;;;;;;28.98;9.30;;;;;;;;;;4950557;28;20042;-68
2023/02/02 12:21:04;;;;;;;30.52;9.90;;;;;;;;;;4950284;28;20093;-69
2023/02/02 12:23:38;;;;;;;49.05;10.82;;;;;;;;;;4954938;28;20414;-69
2023/02/02 12:26:03;;;;;;;29.08;12.52;;;;;;;;;;4953493;28;20070;-69
2023/02/02 12:28:31;;;;;;;27.83;8.82;;;;;;;;;;4949026;28;20031;-69
2023/02/02 12:31:14;;;;;;;21.70;8.93;;;;;;;;;;4951312;28;20026;-69
2023/02/02 12:33:45;;;;;;;25.77;9.18;;;;;;;;;;4952109;28;20030;-69
2023/02/02 12:36:10;;;;;;;21.38;9.18;;;;;;;;;;4950641;28;20551;-69
2023/02/02 12:38:54;;;;;;;23.33;8.15;;;;;;;;;;4951656;28;20460;-69
2023/02/02 12:41:25;;;;;;;25.67;8.45;;;;;;;;;;4950263;28;20030;-69
2023/02/02 12:43:58;;;;;;;30.20;9.23;;;;;;;;;;4949754;28;20046;-68
2023/02/02 12:46:33;;;;;;;31.42;9.15;;;;;;;;;;4948901;28;20034;-68
2023/02/02 12:49:05;;;;;;;18.80;7.63;;;;;;;;;;4949352;28;20019;-68
2023/02/02 12:51:36;;;;;;;21.65;7.85;;;;;;;;;;4950193;28;20029;-68
2023/02/02 12:54:01;;;;;;;31.58;10.45;;;;;;;;;;4951306;28;20026;-68
2023/02/02 12:56:31;;;;;;;34.13;8.55;;;;;;;;;;4951715;28;20031;-68
2023/02/02 12:59:14;;;;;;;31.08;10.60;;;;;;;;;;4952089;28;20023;-68
2023/02/02 13:01:54;;;;;;;26.02;9.30;;;;;;;;;;4950464;28;20027;-70
2023/02/02 13:04:25;;;;;;;28.13;8.45;;;;;;;;;;4946986;28;21947;-69
2023/02/02 13:07:06;;;;;;;24.08;8.10;;;;;;;;;;4952022;28;20543;-66
2023/02/02 13:09:43;;;;;;;27.70;8.68;;;;;;;;;;4951585;28;20023;-67
2023/02/02 13:12:10;;;;;;;22.90;8.95;;;;;;;;;;4950882;28;20023;-69
2023/02/02 13:14:50;;;;;;;28.98;8.77;;;;;;;;;;4949576;28;20023;-70
2023/02/02 13:17:21;;;;;;;26.23;9.50;;;;;;;;;;4946560;28;20365;-66
2023/02/02 13:19:58;;;;;;;28.27;8.52;;;;;;;;;;4951573;28;20456;-68
2023/02/02 13:22:43;;;;;;;30.75;8.75;;;;;;;;;;4951309;28;20090;-67
2023/02/02 13:25:15;;;;;;;37.22;7.90;;;;;;;;;;4947615;28;20038;-67
2023/02/02 13:27:41;;;;;;;17.42;7.53;;;;;;;;;;4964770;28;20090;-68
2023/02/02 13:30:16;;;;;;;22.02;7.65;;;;;;;;;;4951386;28;20015;-69
2023/02/02 13:32:44;;;;;;;30.40;8.38;;;;;;;;;;4950335;28;20031;-67
2023/02/02 13:35:17;;;;;;;30.38;10.00;;;;;;;;;;4950395;28;20074;-67
2023/02/02 13:37:54;;;;;;;19.73;7.53;;;;;;;;;;4949499;28;20039;-67
2023/02/02 13:40:31;;;;;;;24.08;7.70;;;;;;;;;;4951138;28;20022;-69
2023/02/02 13:43:08;;;;;;;28.35;9.10;;;;;;;;;;4950090;28;20106;-67
2023/02/02 13:45:44;;;;;;;23.95;7.00;;;;;;;;;;4948198;28;20023;-67
2023/02/02 13:48:21;;;;;;;20.02;8.07;;;;;;;;;;4948759;29;20053;-67
2023/02/02 13:51:04;;;;;;;21.73;6.43;;;;;;;;;;4950211;28;20117;-67
2023/02/02 13:53:38;;;;;;;20.75;6.95;;;;;;;;;;4951044;28;20497;-67
2023/02/02 13:56:03;;;;;;;29.98;7.40;;;;;;;;;;4948331;28;20460;-67
2023/02/02 13:58:47;;;;;;;26.67;7.05;;;;;;;;;;4949700;28;20031;-68
2023/02/02 14:01:13;;;;;;;20.92;9.80;;;;;;;;;;4950571;28;20070;-71
2023/02/02 14:03:42;;;;;;;23.00;6.88;;;;;;;;;;4950339;28;20024;-69
2023/02/02 14:06:14;;;;;;;23.40;7.50;;;;;;;;;;4946808;28;20110;-69
2023/02/02 14:08:53;;;;;;;22.27;6.50;;;;;;;;;;4950296;28;20031;-67
2023/02/02 14:11:20;;;;;;;28.10;6.35;;;;;;;;;;4949993;28;20019;-66
2023/02/02 14:16:31;;;;;;;21.90;5.88;;;;;;;;;;4948661;28;20034;-69
2023/02/02 14:18:57;;;;;;;19.25;6.30;;;;;;;;;;4948066;28;20467;-69
2023/02/02 14:21:34;;;;;;;23.45;6.57;;;;;;;;;;4949764;28;20031;-70
2023/02/02 14:24:03;;;;;;;29.17;6.88;;;;;;;;;;4962280;28;20027;-67
2023/02/02 14:26:42;;;;;;;20.77;7.53;;;;;;;;;;4949032;28;20425;-69
2023/02/02 14:29:34;;;;;;;18.10;5.63;;;;;;;;;;4950816;28;20387;-68
2023/02/02 14:31:59;;;;;;;24.73;6.38;;;;;;;;;;4950623;28;20455;-67
2023/02/02 14:34:28;;;;;;;19.98;6.47;;;;;;;;;;4948716;28;20061;-69
2023/02/02 14:37:12;;;;;;;36.42;5.63;;;;;;;;;;4953542;28;20031;-67
2023/02/02 14:39:54;;;;;;;19.60;5.10;;;;;;;;;;4950000;28;20035;-68
2023/02/02 14:45:21;;;;;;;23.67;5.50;;;;;;;;;;4946586;28;20507;-67
2023/02/02 14:47:51;;;;;;;20.88;6.18;;;;;;;;;;4949159;28;20054;-68
2023/02/02 14:50:22;;;;;;;22.13;5.93;;;;;;;;;;4953828;28;20015;-70